Overview Statistics Trail Chart Weather Telemetry Raw packets
 

This is the latest recevied weather packets stored in our database for station/object K6CEG. If no packets are shown the sender has not sent any weather packets the latest 10 day(s).

<< 107 108 109 110 111 112 113 >>
Time Temp. Humidity Pressure Rain* Wind** Luminosity Snow
1787864862 35° C 45% 1013.5 hPa 0 mm - 197 W/m² -
1787864562 35° C 45% 1013.6 hPa 0 mm - 207 W/m² -
1787864257 34.44° C 44% 1013.5 hPa 0 mm - 273 W/m² -
1787863951 35° C 44% 1013.6 hPa 0 mm - 348 W/m² -
1787863650 35.56° C 44% 1014 hPa 0 mm - 284 W/m² -
1787863348 35° C 43% 1014 hPa 0 mm - 277 W/m² -
1787863045 35° C 43% 1013.8 hPa 0 mm - 305 W/m² -
1787862748 35.56° C 42% 1013.9 hPa 0 mm - 305 W/m² -
1787862440 35° C 43% 1013.8 hPa 0 mm - 324 W/m² -
1787862136 35.56° C 44% 1013.7 hPa 0 mm - 350 W/m² -
1787861836 35.56° C 44% 1013.9 hPa 0 mm - 282 W/m² -
1787861541 35° C 44% 1013.7 hPa 0 mm - 373 W/m² -
1787861229 34.44° C 46% 1014 hPa 0 mm - 321 W/m² -
1787860928 35.56° C 44% 1014 hPa 0 mm - 322 W/m² -
1787860623 35.56° C 45% 1013.8 hPa 0 mm - 444 W/m² -
1787860318 36.11° C 42% 1013.8 hPa 0 mm - 766 W/m² -
1787860014 36.11° C 41% 1014 hPa 0 mm - 630 W/m² -
1787859709 35° C 43% 1014.1 hPa 0 mm - 381 W/m² -
1787859409 36.11° C 41% 1014.1 hPa 0 mm - 665 W/m² -
1787859104 35.56° C 43% 1014.1 hPa 0 mm - 511 W/m² -
1787858801 35° C 42% 1014.3 hPa 0 mm - 663 W/m² -
1787858496 35° C 41% 1014.2 hPa 0 mm - 692 W/m² -
1787858195 35° C 42% 1014.6 hPa 0 mm - 855 W/m² -
1787857891 35° C 43% 1014.7 hPa 0 mm - 382 W/m² -
1787857587 35° C 42% 1014.6 hPa 0 mm - 299 W/m² -

* Rain latest hour (hover to see other rain measurements)
** Current wind speed in m/s (hover to see current wind gust speed)